Time;durP1;ratioP1;P1;durP2;ratioP2;P2;SDS_P1;SDS_P2;PMS_P1;PMS_P2;Temp;Humidity;BMP_temperature;BMP_pressure;BME280_temperature;BME280_humidity;BME280_pressure;Samples;Min_cycle;Max_cycle;Signal;HPM_P1;HPM_P2
2021/11/05 00:02:08;;;;;;;66.60;27.63;;;6.00;99.90;;;;;;5050986;28;20032;-65
2021/11/05 00:04:34;;;;;;;63.17;27.05;;;6.00;99.90;;;;;;5051580;28;20509;-65
2021/11/05 00:07:00;;;;;;;72.80;28.70;;;6.00;99.90;;;;;;5056684;28;20099;-64
2021/11/05 00:09:26;;;;;;;68.28;28.02;;;6.00;99.90;;;;;;5052029;28;20422;-64
2021/11/05 00:11:51;;;;;;;65.45;28.95;;;6.00;99.90;;;;;;5051161;28;20071;-66
2021/11/05 00:14:17;;;;;;;76.38;31.17;;;6.00;99.90;;;;;;5050639;28;20511;-64
2021/11/05 00:16:43;;;;;;;78.78;33.63;;;6.10;99.90;;;;;;5050842;28;20509;-65
2021/11/05 00:19:09;;;;;;;78.95;32.35;;;6.00;99.90;;;;;;5056843;28;20086;-64
2021/11/05 00:21:35;;;;;;;85.80;32.35;;;6.10;99.90;;;;;;5051002;28;20032;-65
2021/11/05 00:24:01;;;;;;;85.82;32.05;;;6.10;99.90;;;;;;5050163;28;20104;-65
2021/11/05 00:26:26;;;;;;;85.25;34.78;;;6.10;99.90;;;;;;5050517;28;20104;-65
2021/11/05 00:28:52;;;;;;;86.25;33.22;;;6.10;99.90;;;;;;5052373;28;20032;-65
2021/11/05 00:31:17;;;;;;;88.90;36.38;;;6.10;99.90;;;;;;5051587;28;20543;-64
2021/11/05 00:33:43;;;;;;;84.05;33.63;;;6.10;99.90;;;;;;5051386;28;20510;-65
2021/11/05 00:36:13;;;;;;;72.68;30.63;;;6.10;99.90;;;;;;5050927;28;20032;-66
2021/11/05 00:38:44;;;;;;;83.70;32.60;;;6.20;99.90;;;;;;5052147;28;20063;-65
2021/11/05 00:41:10;;;;;;;75.25;33.15;;;6.30;99.90;;;;;;5034985;28;20025;-65
2021/11/05 00:43:36;;;;;;;87.25;34.40;;;6.30;99.90;;;;;;5050162;28;20028;-65
2021/11/05 00:46:03;;;;;;;84.80;33.38;;;6.30;99.90;;;;;;5049387;28;20112;-65
2021/11/05 00:48:28;;;;;;;80.13;33.35;;;6.20;99.90;;;;;;5049786;28;20057;-65
2021/11/05 00:50:54;;;;;;;83.55;31.70;;;6.20;99.90;;;;;;5051427;28;20051;-65
2021/11/05 00:53:19;;;;;;;92.57;36.83;;;6.20;99.90;;;;;;5050804;28;20478;-65
2021/11/05 00:55:45;;;;;;;92.15;35.85;;;6.20;99.90;;;;;;5050016;28;20046;-64
2021/11/05 00:58:11;;;;;;;95.50;37.40;;;6.20;99.90;;;;;;5059019;28;20047;-65
2021/11/05 01:00:36;;;;;;;84.72;34.45;;;6.20;99.90;;;;;;5049129;28;20032;-65
2021/11/05 01:03:02;;;;;;;86.32;33.80;;;6.30;99.90;;;;;;5049988;28;20067;-65
2021/11/05 01:05:27;;;;;;;87.47;35.00;;;6.30;99.90;;;;;;5049437;28;20538;-65
2021/11/05 01:07:53;;;;;;;90.13;35.53;;;6.30;99.90;;;;;;5050402;28;20029;-65
2021/11/05 01:10:19;;;;;;;86.80;35.00;;;6.30;99.90;;;;;;5049616;28;20060;-65
2021/11/05 01:12:45;;;;;;;84.28;33.42;;;6.30;99.90;;;;;;5035055;28;20025;-64
2021/11/05 01:15:12;;;;;;;76.68;33.10;;;6.30;99.90;;;;;;5049637;28;20056;-66
2021/11/05 01:17:39;;;;;;;85.22;33.80;;;6.40;99.90;;;;;;5050052;28;20067;-66
2021/11/05 01:20:08;;;;;;;83.03;34.35;;;6.50;99.90;;;;;;5050279;28;20033;-66
2021/11/05 01:22:33;;;;;;;85.40;31.48;;;6.50;99.90;;;;;;5049065;28;20021;-66
2021/11/05 01:24:59;;;;;;;86.75;33.10;;;6.60;99.90;;;;;;5031914;28;20483;-65
2021/11/05 01:27:25;;;;;;;97.13;35.92;;;6.60;99.90;;;;;;5049020;28;20056;-66
2021/11/05 01:29:52;;;;;;;87.18;35.67;;;6.70;99.90;;;;;;5049666;28;20056;-66
2021/11/05 01:32:18;;;;;;;95.72;37.05;;;6.70;99.90;;;;;;5049798;28;20017;-66
2021/11/05 01:34:44;;;;;;;85.43;33.90;;;6.70;99.90;;;;;;5049404;28;20029;-65
2021/11/05 01:37:09;;;;;;;95.75;37.75;;;6.70;99.90;;;;;;5050196;28;20400;-65
2021/11/05 01:39:35;;;;;;;89.82;35.22;;;6.80;99.90;;;;;;5049852;28;20036;-64
2021/11/05 01:42:01;;;;;;;87.05;33.28;;;6.80;99.90;;;;;;5050253;28;20029;-65
2021/11/05 01:44:26;;;;;;;85.72;33.58;;;6.80;99.90;;;;;;5049190;28;20013;-64
2021/11/05 01:46:52;;;;;;;90.13;35.50;;;6.80;99.90;;;;;;5049938;28;20056;-65
2021/11/05 01:49:18;;;;;;;92.25;35.50;;;6.80;99.90;;;;;;5051846;28;20037;-65
2021/11/05 01:51:45;;;;;;;82.13;34.10;;;6.80;99.90;;;;;;5049574;28;20040;-65
2021/11/05 01:54:12;;;;;;;105.25;37.78;;;6.80;99.90;;;;;;5048443;28;20029;-65
2021/11/05 01:56:39;;;;;;;96.20;37.08;;;6.90;99.90;;;;;;5049719;28;20025;-66
2021/11/05 01:59:05;;;;;;;90.65;36.20;;;6.90;99.90;;;;;;5049419;28;20032;-66
2021/11/05 02:01:31;;;;;;;93.68;37.03;;;6.90;99.90;;;;;;5051180;28;20417;-65
2021/11/05 02:03:56;;;;;;;102.40;37.88;;;7.00;99.90;;;;;;5048923;28;20017;-64
2021/11/05 02:06:23;;;;;;;96.32;37.50;;;7.00;99.90;;;;;;5049152;28;20029;-66
2021/11/05 02:08:51;;;;;;;100.90;40.80;;;7.00;99.90;;;;;;5046031;28;20495;-65
2021/11/05 02:11:18;;;;;;;112.60;42.58;;;7.00;99.90;;;;;;5049048;28;20107;-65
2021/11/05 02:13:46;;;;;;;114.55;42.15;;;7.10;99.90;;;;;;5047988;28;20036;-65
2021/11/05 02:16:12;;;;;;;110.97;43.17;;;7.20;99.90;;;;;;5049296;28;20039;-66
2021/11/05 02:18:40;;;;;;;130.43;48.90;;;7.20;99.90;;;;;;5049143;28;20059;-65
2021/11/05 02:21:09;;;;;;;111.85;42.63;;;7.30;99.90;;;;;;5047425;28;20070;-64
2021/11/05 02:23:35;;;;;;;125.80;46.05;;;7.40;99.90;;;;;;5048314;28;20044;-65
2021/11/05 02:26:01;;;;;;;114.15;43.13;;;7.40;99.90;;;;;;5048703;28;20059;-66
2021/11/05 02:28:26;;;;;;;123.95;48.35;;;7.50;99.90;;;;;;5048869;28;20033;-66
2021/11/05 02:30:52;;;;;;;133.13;47.47;;;7.60;99.90;;;;;;5049094;28;20039;-66
2021/11/05 02:33:18;;;;;;;133.68;49.53;;;7.70;99.90;;;;;;5051023;28;20021;-65
2021/11/05 02:35:44;;;;;;;129.13;48.45;;;7.70;99.90;;;;;;5047572;28;20092;-65
2021/11/05 02:38:09;;;;;;;127.72;47.85;;;7.80;99.90;;;;;;5049559;28;20125;-64
2021/11/05 02:40:36;;;;;;;140.50;52.33;;;7.80;99.90;;;;;;5035760;28;20029;-65
2021/11/05 02:43:02;;;;;;;142.23;49.05;;;7.90;99.90;;;;;;5046069;28;20525;-65
2021/11/05 02:45:27;;;;;;;133.45;47.40;;;7.90;99.90;;;;;;5052831;28;20407;-66
2021/11/05 02:47:55;;;;;;;141.55;48.63;;;7.90;99.90;;;;;;5052468;28;20029;-65
2021/11/05 02:50:20;;;;;;;138.43;49.58;;;8.00;99.90;;;;;;5047692;28;20032;-66
2021/11/05 02:52:46;;;;;;;152.73;53.47;;;8.00;99.90;;;;;;5051685;28;20395;-65
2021/11/05 02:55:14;;;;;;;162.80;55.35;;;8.00;99.90;;;;;;5052734;28;20398;-66
2021/11/05 02:57:40;;;;;;;149.48;52.10;;;8.00;99.90;;;;;;5052248;28;20095;-65
2021/11/05 03:00:09;;;;;;;141.45;51.28;;;8.00;99.90;;;;;;5052388;28;20029;-62
2021/11/05 03:02:34;;;;;;;144.05;51.38;;;7.90;99.90;;;;;;5051575;28;20398;-65
2021/11/05 03:05:00;;;;;;;134.90;49.80;;;8.00;99.90;;;;;;5051402;28;20025;-63
2021/11/05 03:07:25;;;;;;;144.50;49.28;;;8.00;99.90;;;;;;5051468;28;20032;-65
2021/11/05 03:09:51;;;;;;;164.65;52.45;;;8.00;99.90;;;;;;5052740;28;20044;-65
2021/11/05 03:12:17;;;;;;;152.75;52.83;;;8.10;99.90;;;;;;5051412;28;20128;-65
2021/11/05 03:14:42;;;;;;;143.07;50.47;;;8.10;99.90;;;;;;5052119;28;20593;-65
2021/11/05 03:17:08;;;;;;;134.68;49.63;;;8.00;99.90;;;;;;5050225;28;20028;-66
2021/11/05 03:19:34;;;;;;;146.13;52.53;;;8.10;99.90;;;;;;5051952;28;20581;-64
2021/11/05 03:22:00;;;;;;;136.00;51.88;;;8.10;99.90;;;;;;5052036;28;20037;-65
2021/11/05 03:24:25;;;;;;;127.32;49.88;;;8.10;99.90;;;;;;5036650;28;20025;-66
2021/11/05 03:26:52;;;;;;;159.50;51.72;;;8.20;99.90;;;;;;5033718;28;20032;-65
2021/11/05 03:29:17;;;;;;;142.48;51.83;;;8.20;99.90;;;;;;5052204;28;20491;-65
2021/11/05 03:31:43;;;;;;;151.55;55.53;;;8.20;99.90;;;;;;5051582;28;20040;-66
2021/11/05 03:34:09;;;;;;;141.18;52.47;;;8.20;99.90;;;;;;5052168;28;20159;-66
2021/11/05 03:36:35;;;;;;;151.52;52.22;;;8.20;99.90;;;;;;5051543;28;20044;-65
2021/11/05 03:39:01;;;;;;;132.85;50.25;;;8.20;99.90;;;;;;5052129;28;20037;-66
2021/11/05 03:41:26;;;;;;;126.38;46.90;;;8.30;99.90;;;;;;5051962;28;20036;-65
2021/11/05 03:43:52;;;;;;;136.50;48.28;;;8.30;99.90;;;;;;5034566;28;20376;-66
2021/11/05 03:46:18;;;;;;;136.40;47.95;;;8.30;99.90;;;;;;5047865;28;20155;-66
2021/11/05 03:48:44;;;;;;;122.72;48.75;;;8.30;99.90;;;;;;5050932;28;20029;-66
2021/11/05 03:51:10;;;;;;;136.32;49.53;;;8.30;99.90;;;;;;5051278;28;20130;-65
2021/11/05 03:53:36;;;;;;;137.38;46.40;;;8.20;99.90;;;;;;5051612;28;20036;-65
2021/11/05 03:56:03;;;;;;;118.65;45.20;;;8.20;99.90;;;;;;5033852;28;20103;-65
2021/11/05 03:58:28;;;;;;;129.45;46.35;;;8.20;99.90;;;;;;5051084;28;20033;-65
2021/11/05 04:00:54;;;;;;;124.93;44.75;;;8.30;99.90;;;;;;5051687;28;20032;-65
2021/11/05 04:03:21;;;;;;;116.43;44.10;;;8.20;99.90;;;;;;5035754;28;20021;-65
2021/11/05 04:05:47;;;;;;;117.97;42.47;;;8.30;99.90;;;;;;5050778;28;20021;-65
2021/11/05 04:08:13;;;;;;;109.35;42.55;;;8.30;99.90;;;;;;5050635;28;20013;-65
2021/11/05 04:10:39;;;;;;;127.93;44.50;;;8.30;99.90;;;;;;5052071;28;20044;-64
2021/11/05 04:13:05;;;;;;;121.30;44.20;;;8.20;99.90;;;;;;5050947;28;20033;-65
2021/11/05 04:15:30;;;;;;;122.63;44.35;;;8.20;99.90;;;;;;5051309;28;20510;-65
2021/11/05 04:17:56;;;;;;;127.10;45.80;;;8.10;99.90;;;;;;5050859;28;20033;-65
2021/11/05 04:20:22;;;;;;;121.15;46.30;;;8.10;99.90;;;;;;5052083;28;20021;-65
2021/11/05 04:22:47;;;;;;;126.85;45.40;;;8.00;99.90;;;;;;5050383;28;20096;-65
2021/11/05 04:25:13;;;;;;;127.63;44.20;;;8.00;99.90;;;;;;5051238;28;20043;-65
2021/11/05 04:27:39;;;;;;;128.45;43.55;;;7.90;99.90;;;;;;5097194;22;20464;-60
2021/11/05 04:30:07;;;;;;;120.85;42.63;;;7.90;99.90;;;;;;5084825;28;20024;-61
2021/11/05 04:32:33;;;;;;;133.55;42.30;;;8.00;99.90;;;;;;5085484;28;20070;-58
2021/11/05 04:34:59;;;;;;;126.30;45.55;;;8.00;99.90;;;;;;5081218;28;20056;-59
2021/11/05 04:37:24;;;;;;;122.40;44.00;;;8.00;99.90;;;;;;5076754;28;20027;-58
2021/11/05 04:39:50;;;;;;;118.88;44.53;;;8.10;99.90;;;;;;5076099;28;20025;-60
2021/11/05 04:42:15;;;;;;;105.97;39.80;;;8.10;99.90;;;;;;5068320;28;20078;-59
2021/11/05 04:44:41;;;;;;;106.78;39.53;;;8.10;99.90;;;;;;5070193;28;20043;-60
2021/11/05 04:47:06;;;;;;;100.53;37.42;;;8.10;99.90;;;;;;5070997;28;20082;-61
2021/11/05 04:49:32;;;;;;;111.20;39.88;;;8.10;99.90;;;;;;5068917;28;20031;-60
2021/11/05 04:51:58;;;;;;;116.22;38.20;;;8.20;99.90;;;;;;5071128;28;20493;-60
2021/11/05 04:54:23;;;;;;;94.50;36.78;;;8.20;99.90;;;;;;5070134;28;20035;-60
2021/11/05 04:56:50;;;;;;;97.75;36.28;;;8.20;99.90;;;;;;5074315;28;20470;-61
2021/11/05 04:59:18;;;;;;;88.97;34.20;;;8.20;99.90;;;;;;5070879;28;20048;-61
2021/11/05 05:01:44;;;;;;;86.70;34.40;;;8.30;99.90;;;;;;5070283;28;20024;-60
2021/11/05 05:04:10;;;;;;;79.72;33.95;;;8.30;99.90;;;;;;5071347;28;20119;-60
2021/11/05 05:06:36;;;;;;;78.13;32.03;;;8.30;99.90;;;;;;5069199;28;20029;-59
2021/11/05 05:09:02;;;;;;;90.47;34.00;;;8.30;99.90;;;;;;5070970;28;20028;-60
2021/11/05 05:11:28;;;;;;;89.80;33.95;;;8.30;99.90;;;;;;5071433;28;20397;-60
2021/11/05 05:13:53;;;;;;;85.35;32.67;;;8.30;99.90;;;;;;5072491;28;20032;-61
2021/11/05 05:16:19;;;;;;;92.75;34.38;;;8.30;99.90;;;;;;5073890;28;20501;-61
2021/11/05 05:18:46;;;;;;;92.03;34.17;;;8.30;99.90;;;;;;5070273;28;20107;-59
2021/11/05 05:21:12;;;;;;;104.00;35.70;;;8.20;99.90;;;;;;5070378;28;20060;-59
2021/11/05 05:23:38;;;;;;;100.72;32.85;;;8.20;99.90;;;;;;5069817;28;20490;-60
2021/11/05 05:26:04;;;;;;;104.38;35.13;;;8.20;99.90;;;;;;5068498;28;20067;-61
2021/11/05 05:28:31;;;;;;;97.47;34.75;;;8.20;99.90;;;;;;5071652;28;20031;-61
2021/11/05 05:31:01;;;;;;;96.03;34.53;;;8.20;99.90;;;;;;5069784;28;20551;-60
2021/11/05 05:33:27;;;;;;;99.85;34.08;;;8.10;99.90;;;;;;5071745;28;20127;-61
2021/11/05 05:35:53;;;;;;;97.57;37.03;;;8.10;99.90;;;;;;5068824;28;20100;-60
2021/11/05 05:38:18;;;;;;;103.28;37.25;;;8.10;99.90;;;;;;5076069;28;20105;-59
2021/11/05 05:40:44;;;;;;;94.72;34.72;;;8.20;99.90;;;;;;5074273;28;20033;-58
2021/11/05 05:43:09;;;;;;;101.00;36.15;;;8.20;99.90;;;;;;5071945;28;21317;-59
2021/11/05 05:45:35;;;;;;;94.10;36.78;;;8.20;99.90;;;;;;5071513;28;20025;-60
2021/11/05 05:48:01;;;;;;;95.38;36.45;;;8.20;99.90;;;;;;5069098;28;20025;-60
2021/11/05 05:50:27;;;;;;;91.15;35.15;;;8.20;99.90;;;;;;5071451;28;20331;-59
2021/11/05 05:52:53;;;;;;;91.22;34.55;;;8.30;99.90;;;;;;5066002;28;20025;-58
2021/11/05 05:55:18;;;;;;;92.28;36.90;;;8.30;99.90;;;;;;5068374;28;20527;-60
2021/11/05 05:57:44;;;;;;;95.47;38.22;;;8.30;99.90;;;;;;5069515;28;20417;-60
2021/11/05 06:00:14;;;;;;;85.97;36.30;;;8.30;99.90;;;;;;5067933;28;20029;-60
2021/11/05 06:02:40;;;;;;;78.53;33.03;;;8.30;99.90;;;;;;5066417;28;20020;-56
2021/11/05 06:05:06;;;;;;;86.80;36.55;;;8.30;99.90;;;;;;5068500;28;20078;-60
2021/11/05 06:07:31;;;;;;;82.28;34.50;;;8.30;99.90;;;;;;5069260;28;20533;-59
2021/11/05 06:09:57;;;;;;;81.22;35.40;;;8.30;99.90;;;;;;5068665;28;20032;-61
2021/11/05 06:12:23;;;;;;;87.00;36.40;;;8.30;99.90;;;;;;5067642;28;20027;-59
2021/11/05 06:14:49;;;;;;;78.65;35.80;;;8.30;99.90;;;;;;5069107;28;20107;-60
2021/11/05 06:17:15;;;;;;;77.15;35.70;;;8.30;99.90;;;;;;5069381;28;20052;-62
2021/11/05 06:19:42;;;;;;;82.15;37.35;;;8.40;99.90;;;;;;5067977;28;20017;-60
2021/11/05 06:22:08;;;;;;;79.00;36.55;;;8.40;99.90;;;;;;5068024;28;20032;-61
2021/11/05 06:24:34;;;;;;;83.20;36.67;;;8.30;99.90;;;;;;5068757;28;20386;-59
2021/11/05 06:26:59;;;;;;;74.43;34.50;;;8.30;99.90;;;;;;5066923;28;20028;-60
2021/11/05 06:29:25;;;;;;;83.25;36.65;;;8.30;99.90;;;;;;5069072;28;20441;-59
2021/11/05 06:31:50;;;;;;;71.00;34.25;;;8.30;99.90;;;;;;5064979;28;20025;-62
2021/11/05 06:34:16;;;;;;;71.68;33.30;;;8.30;99.90;;;;;;5070915;28;20104;-60
2021/11/05 06:36:42;;;;;;;69.72;34.67;;;8.30;99.90;;;;;;5069166;28;20040;-62
2021/11/05 06:39:08;;;;;;;74.97;35.25;;;8.30;99.90;;;;;;5069543;28;20028;-61
2021/11/05 06:41:33;;;;;;;75.78;34.13;;;8.30;99.90;;;;;;5069014;28;20040;-59
2021/11/05 06:43:59;;;;;;;63.80;32.65;;;8.30;99.90;;;;;;5068621;28;20025;-62
2021/11/05 06:46:26;;;;;;;72.32;36.20;;;8.30;99.90;;;;;;5069772;28;20060;-61
2021/11/05 06:48:51;;;;;;;69.68;35.05;;;8.30;99.90;;;;;;5069436;28;20068;-62
2021/11/05 06:51:17;;;;;;;78.55;35.58;;;8.30;99.90;;;;;;5068903;28;20060;-60
2021/11/05 06:53:43;;;;;;;65.78;33.28;;;8.20;99.90;;;;;;5069552;28;20025;-58
2021/11/05 06:56:09;;;;;;;69.75;34.55;;;8.20;99.90;;;;;;5069186;28;20094;-61
2021/11/05 06:58:36;;;;;;;71.15;37.05;;;8.20;99.90;;;;;;5068227;28;20050;-61
2021/11/05 07:01:03;;;;;;;71.25;36.25;;;8.20;99.90;;;;;;5066876;28;20055;-61
2021/11/05 07:03:29;;;;;;;76.78;37.42;;;8.20;99.90;;;;;;5069337;28;20363;-60
2021/11/05 07:05:55;;;;;;;71.78;37.45;;;8.20;99.90;;;;;;5069431;28;20082;-62
2021/11/05 07:08:20;;;;;;;74.22;36.65;;;8.20;99.90;;;;;;5069065;28;20155;-60
2021/11/05 07:10:47;;;;;;;69.07;35.20;;;8.10;99.90;;;;;;5069103;28;20342;-61
2021/11/05 07:13:13;;;;;;;68.47;37.20;;;8.10;99.90;;;;;;5068189;28;20086;-62
2021/11/05 07:15:39;;;;;;;68.65;36.67;;;8.10;99.90;;;;;;5067563;28;20505;-62
2021/11/05 07:18:04;;;;;;;71.07;36.50;;;8.00;99.90;;;;;;5069215;28;20486;-62
2021/11/05 07:20:33;;;;;;;64.55;34.42;;;8.00;99.90;;;;;;5068791;28;20032;-62
2021/11/05 07:22:59;;;;;;;60.15;31.92;;;8.00;99.90;;;;;;5068775;28;20032;-61
2021/11/05 07:25:24;;;;;;;73.65;36.03;;;8.00;99.90;;;;;;5071665;28;20020;-61
2021/11/05 07:27:50;;;;;;;63.55;33.92;;;8.00;99.90;;;;;;5072030;28;20064;-60
2021/11/05 07:30:16;;;;;;;63.03;32.67;;;8.00;99.90;;;;;;5071942;28;20054;-62
2021/11/05 07:32:45;;;;;;;73.97;35.63;;;8.00;99.90;;;;;;5072607;28;20302;-61
2021/11/05 07:35:12;;;;;;;68.47;33.88;;;8.00;99.90;;;;;;5069938;28;20032;-62
2021/11/05 07:37:37;;;;;;;64.20;35.28;;;8.00;99.90;;;;;;5069403;28;20024;-61
2021/11/05 07:40:04;;;;;;;67.68;35.15;;;7.90;99.90;;;;;;5069483;28;20387;-62
2021/11/05 07:42:30;;;;;;;67.90;34.90;;;7.90;99.90;;;;;;5073126;28;20021;-61
2021/11/05 07:44:56;;;;;;;68.00;35.17;;;7.90;99.90;;;;;;5071231;28;20435;-61
2021/11/05 07:47:23;;;;;;;67.93;34.67;;;7.90;99.90;;;;;;5070243;28;20402;-62
2021/11/05 07:49:50;;;;;;;75.32;36.17;;;7.90;99.90;;;;;;5065039;28;20390;-61
2021/11/05 07:52:19;;;;;;;65.68;35.95;;;8.00;99.90;;;;;;5071224;28;20029;-59
2021/11/05 07:54:48;;;;;;;65.05;34.70;;;8.00;99.90;;;;;;5070822;28;20024;-61
2021/11/05 07:57:14;;;;;;;66.50;34.00;;;8.00;99.90;;;;;;5071151;28;20490;-60
2021/11/05 07:59:40;;;;;;;74.20;35.85;;;8.10;99.90;;;;;;5071277;28;20082;-62
2021/11/05 08:02:06;;;;;;;70.20;35.63;;;8.10;99.90;;;;;;5070746;28;20025;-62
2021/11/05 08:04:31;;;;;;;69.32;34.53;;;8.10;99.90;;;;;;5070749;28;20017;-61
2021/11/05 08:06:57;;;;;;;67.22;35.22;;;8.10;99.90;;;;;;5070690;28;20029;-61
2021/11/05 08:09:22;;;;;;;67.80;34.28;;;8.10;99.90;;;;;;5068145;28;20028;-62
2021/11/05 08:11:48;;;;;;;75.85;36.00;;;8.20;99.90;;;;;;5070262;28;20031;-53
2021/11/05 08:14:14;;;;;;;63.78;34.15;;;8.20;99.90;;;;;;5069917;28;20055;-62
2021/11/05 08:16:39;;;;;;;70.07;35.90;;;8.20;99.90;;;;;;5070158;28;20040;-59
2021/11/05 08:19:05;;;;;;;68.80;35.45;;;8.20;99.90;;;;;;5071424;28;20037;-61
2021/11/05 08:21:31;;;;;;;71.40;33.22;;;8.20;99.90;;;;;;5069683;28;20032;-62
2021/11/05 08:23:57;;;;;;;69.80;35.38;;;8.30;99.90;;;;;;5068484;28;20021;-62
2021/11/05 08:26:24;;;;;;;66.88;33.65;;;8.30;99.90;;;;;;5070339;28;20033;-62
2021/11/05 08:28:50;;;;;;;69.38;33.53;;;8.30;99.90;;;;;;5069706;28;20115;-60
2021/11/05 08:31:16;;;;;;;58.25;32.05;;;8.30;99.90;;;;;;5071227;28;20557;-61
2021/11/05 08:33:43;;;;;;;63.83;33.35;;;8.30;99.90;;;;;;5072267;28;20028;-62
2021/11/05 08:36:11;;;;;;;57.67;33.08;;;8.30;99.90;;;;;;5070424;28;20405;-60
2021/11/05 08:38:37;;;;;;;64.95;34.55;;;8.40;99.90;;;;;;5063045;28;20048;-62
2021/11/05 08:41:03;;;;;;;65.57;35.08;;;8.40;99.90;;;;;;5069727;28;20106;-61
2021/11/05 08:43:32;;;;;;;64.60;32.53;;;8.50;99.90;;;;;;5070842;28;20032;-62
2021/11/05 08:46:02;;;;;;;62.47;32.17;;;8.50;99.90;;;;;;5070719;28;20099;-61
2021/11/05 08:48:29;;;;;;;61.20;31.30;;;8.60;99.90;;;;;;5071515;28;20074;-61
2021/11/05 08:50:57;;;;;;;67.88;32.03;;;8.60;99.90;;;;;;5070835;28;20486;-60
2021/11/05 08:53:23;;;;;;;58.38;30.67;;;8.70;99.90;;;;;;5069755;28;20402;-60
2021/11/05 08:55:49;;;;;;;55.92;28.92;;;8.80;99.90;;;;;;5070731;28;20021;-62
2021/11/05 08:58:15;;;;;;;56.05;29.35;;;8.80;99.90;;;;;;5069913;28;20036;-61
2021/11/05 09:00:40;;;;;;;56.22;29.05;;;8.80;99.90;;;;;;5070472;28;20028;-62
2021/11/05 09:03:06;;;;;;;57.92;31.38;;;8.90;99.90;;;;;;5071097;28;20513;-62
2021/11/05 09:05:35;;;;;;;61.67;30.58;;;8.90;99.90;;;;;;5071113;28;20024;-61
2021/11/05 09:08:00;;;;;;;54.75;30.00;;;8.90;99.90;;;;;;5070164;28;20024;-61
2021/11/05 09:10:27;;;;;;;59.00;30.00;;;8.90;99.90;;;;;;5070837;28;20035;-60
2021/11/05 09:12:52;;;;;;;62.97;29.70;;;8.90;99.90;;;;;;5068826;28;20448;-62
2021/11/05 09:15:22;;;;;;;60.42;29.70;;;8.90;99.90;;;;;;5069474;28;20328;-60
2021/11/05 09:17:49;;;;;;;59.35;29.60;;;8.90;99.90;;;;;;5069092;28;20494;-61
2021/11/05 09:20:17;;;;;;;67.22;28.92;;;8.90;99.90;;;;;;5069862;28;20355;-62
2021/11/05 09:22:43;;;;;;;62.40;29.50;;;8.90;99.90;;;;;;5068572;28;20073;-59
2021/11/05 09:25:09;;;;;;;52.92;28.77;;;9.00;99.90;;;;;;5069166;28;20025;-60
2021/11/05 09:27:35;;;;;;;61.78;31.90;;;9.10;99.90;;;;;;5069321;28;20482;-59
2021/11/05 09:30:03;;;;;;;62.88;29.15;;;9.20;99.90;;;;;;5069264;28;20103;-60
2021/11/05 09:32:28;;;;;;;59.20;30.58;;;9.20;99.90;;;;;;5069571;28;20081;-62
2021/11/05 09:34:55;;;;;;;63.22;30.73;;;9.20;99.90;;;;;;5068694;28;20056;-61
2021/11/05 09:37:22;;;;;;;62.90;31.17;;;9.30;99.90;;;;;;5069014;28;20036;-62
2021/11/05 09:39:47;;;;;;;58.95;30.20;;;9.30;99.90;;;;;;5068483;28;20037;-61
2021/11/05 09:42:14;;;;;;;58.38;29.75;;;9.40;99.90;;;;;;5071269;28;20024;-61
2021/11/05 09:44:40;;;;;;;58.90;29.20;;;9.40;99.90;;;;;;5069007;28;20123;-62
2021/11/05 09:47:06;;;;;;;59.13;28.30;;;9.40;99.90;;;;;;5068404;28;20112;-59
2021/11/05 09:49:34;;;;;;;56.17;28.85;;;9.40;99.90;;;;;;5069731;28;20027;-60
2021/11/05 09:52:03;;;;;;;53.53;28.15;;;9.50;99.90;;;;;;5070041;28;20035;-60
2021/11/05 09:54:31;;;;;;;48.42;24.88;;;9.40;99.90;;;;;;5069521;28;20020;-62
2021/11/05 09:56:58;;;;;;;59.60;27.73;;;9.50;99.90;;;;;;5067931;28;20028;-60
2021/11/05 09:59:24;;;;;;;52.53;26.77;;;9.50;99.90;;;;;;5068922;28;20099;-61
2021/11/05 10:01:50;;;;;;;63.22;27.27;;;9.50;99.90;;;;;;5068687;28;20089;-62
2021/11/05 10:04:16;;;;;;;45.45;25.33;;;9.50;99.90;;;;;;5069862;28;20108;-60
2021/11/05 10:07:05;;;;;;;49.15;24.98;;;9.50;99.90;;;;;;5069969;28;20099;-62
2021/11/05 10:09:39;;;;;;;49.47;24.42;;;9.60;99.90;;;;;;5069787;28;20479;-61
2021/11/05 10:12:07;;;;;;;48.55;22.67;;;9.70;99.90;;;;;;5069951;28;20074;-61
2021/11/05 10:14:32;;;;;;;45.15;24.67;;;9.80;99.90;;;;;;5068805;28;20032;-61
2021/11/05 10:17:03;;;;;;;44.67;23.73;;;9.80;99.90;;;;;;5068818;28;20039;-62
2021/11/05 10:19:45;;;;;;;54.05;24.77;;;9.80;99.90;;;;;;5068579;28;20039;-62
2021/11/05 10:22:36;;;;;;;49.28;24.38;;;10.00;99.90;;;;;;5068657;28;20024;-61
2021/11/05 10:25:22;;;;;;;44.80;23.27;;;10.10;99.90;;;;;;5067565;28;20017;-61
2021/11/05 10:27:57;;;;;;;39.65;22.65;;;10.20;99.90;;;;;;5078765;22;20056;-63
2021/11/05 10:30:23;;;;;;;43.58;24.38;;;10.20;99.90;;;;;;5043029;28;20057;-65
2021/11/05 10:33:00;;;;;;;49.53;21.77;;;10.30;99.90;;;;;;5061217;28;20540;-64
2021/11/05 10:35:26;;;;;;;47.42;21.08;;;10.40;99.90;;;;;;5046244;28;20029;-65
2021/11/05 10:38:03;;;;;;;38.88;21.33;;;10.50;99.90;;;;;;5040281;28;20413;-64
2021/11/05 10:40:43;;;;;;;36.55;20.08;;;10.70;99.90;;;;;;5068856;28;20506;-62
2021/11/05 10:43:10;;;;;;;36.90;19.90;;;10.60;99.90;;;;;;5051846;28;20032;-62
2021/11/05 10:45:40;;;;;;;49.75;22.40;;;10.60;99.90;;;;;;5050038;28;20036;-63
2021/11/05 10:48:12;;;;;;;43.67;21.67;;;10.50;99.90;;;;;;5052050;28;20025;-63
2021/11/05 10:50:53;;;;;;;38.72;21.25;;;10.50;99.90;;;;;;5049627;28;20348;-63
2021/11/05 10:53:23;;;;;;;38.78;21.42;;;10.50;99.90;;;;;;5048662;28;20021;-63
2021/11/05 10:55:59;;;;;;;42.88;23.63;;;10.70;99.90;;;;;;5048534;28;20143;-63
2021/11/05 10:58:31;;;;;;;46.45;23.45;;;10.70;99.90;;;;;;5043684;28;20025;-62
2021/11/05 11:00:57;;;;;;;44.88;23.27;;;10.90;99.90;;;;;;5047262;28;20044;-64
2021/11/05 11:03:25;;;;;;;40.38;21.27;;;11.00;99.90;;;;;;5052346;28;20444;-65
2021/11/05 11:05:53;;;;;;;46.47;21.55;;;11.10;99.90;;;;;;5055039;28;20086;-65
2021/11/05 11:08:32;;;;;;;48.67;20.55;;;11.20;99.90;;;;;;5063220;28;20126;-65
2021/11/05 11:11:00;;;;;;;39.85;20.95;;;11.20;99.90;;;;;;5053182;28;20112;-65
2021/11/05 11:13:29;;;;;;;40.58;21.33;;;11.20;99.90;;;;;;5051581;28;20029;-64
2021/11/05 11:15:55;;;;;;;37.58;21.20;;;11.10;99.90;;;;;;5051417;28;20048;-62
2021/11/05 11:18:21;;;;;;;39.78;19.65;;;10.90;99.90;;;;;;5051673;28;20491;-61
2021/11/05 11:20:47;;;;;;;42.00;18.05;;;10.90;99.90;;;;;;5052236;28;20136;-64
2021/11/05 11:23:12;;;;;;;41.50;18.92;;;10.80;99.90;;;;;;5033896;28;20029;-64
2021/11/05 11:25:38;;;;;;;34.90;18.63;;;10.90;99.90;;;;;;5044340;28;20029;-64
2021/11/05 11:28:04;;;;;;;40.78;18.23;;;10.90;99.90;;;;;;5046461;28;20040;-62
2021/11/05 11:30:29;;;;;;;40.50;19.45;;;11.00;99.90;;;;;;5051518;28;20021;-63
2021/11/05 11:32:57;;;;;;;35.60;17.15;;;11.00;99.90;;;;;;5051686;28;20052;-64
2021/11/05 11:35:24;;;;;;;38.80;16.33;;;11.00;99.90;;;;;;5065985;28;20552;-63
2021/11/05 11:37:50;;;;;;;30.90;17.27;;;11.10;99.90;;;;;;5068777;28;20530;-63
2021/11/05 11:40:15;;;;;;;29.63;16.33;;;11.30;99.90;;;;;;5054713;28;20037;-65
2021/11/05 11:42:41;;;;;;;38.45;16.85;;;11.50;99.90;;;;;;5051019;28;20032;-62
2021/11/05 11:45:12;;;;;;;47.53;16.77;;;11.70;99.90;;;;;;5048350;28;20596;-63
2021/11/05 11:47:43;;;;;;;33.85;16.98;;;11.60;99.90;;;;;;5051859;28;20697;-63
2021/11/05 11:50:27;;;;;;;30.42;15.52;;;11.70;99.90;;;;;;5051368;28;20371;-63
2021/11/05 11:53:29;;;;;;;29.80;15.90;;;11.70;99.90;;;;;;5051502;28;20316;-60
2021/11/05 11:56:00;;;;;;;24.00;14.98;;;11.70;99.90;;;;;;5044981;28;20299;-63
2021/11/05 11:58:26;;;;;;;34.03;15.50;;;11.60;99.90;;;;;;5052901;28;20036;-63
2021/11/05 12:00:52;;;;;;;43.88;15.27;;;11.60;99.90;;;;;;5062397;28;20075;-63
2021/11/05 12:03:27;;;;;;;27.38;14.18;;;11.60;99.90;;;;;;5056824;28;20096;-63
2021/11/05 12:05:58;;;;;;;27.23;14.00;;;11.50;99.90;;;;;;5051411;28;20045;-62
2021/11/05 12:08:30;;;;;;;26.38;14.38;;;11.40;99.90;;;;;;5050913;28;20081;-62
2021/11/05 12:11:09;;;;;;;29.77;14.68;;;11.40;99.90;;;;;;5049608;28;20049;-62
2021/11/05 12:13:34;;;;;;;23.10;12.40;;;11.40;99.90;;;;;;5031162;28;20071;-60
2021/11/05 12:16:27;;;;;;;30.23;13.52;;;11.40;99.90;;;;;;5051528;28;20025;-62
2021/11/05 12:19:08;;;;;;;22.95;11.82;;;11.50;99.90;;;;;;5050477;28;20021;-61
2021/11/05 12:21:36;;;;;;;19.73;12.20;;;11.50;99.90;;;;;;5050540;28;20052;-62
2021/11/05 12:24:19;;;;;;;29.08;12.60;;;11.50;99.90;;;;;;5050890;28;20498;-63
2021/11/05 12:27:14;;;;;;;22.25;12.30;;;11.50;99.90;;;;;;5056447;28;20028;-61
2021/11/05 12:29:40;;;;;;;26.20;11.52;;;11.40;99.90;;;;;;5044832;28;20323;-62
2021/11/05 12:32:17;;;;;;;24.00;11.52;;;11.50;99.90;;;;;;5050344;28;20057;-62
2021/11/05 12:34:52;;;;;;;29.25;13.05;;;11.60;99.90;;;;;;5051618;28;20498;-61